ULLI/LED METAR and TAF weather

Enter ICAO airport designator
Station Type Date Time Source
ULLI METAR 2022/01/19 19:30 UTC NOAA

ULLI 191930Z 23004G09MPS 180V320 9999 OVC011 02/M00 Q0994 R28L/290050 NOSIG


Station Type Date Time Source
ULLI Decoded METAR 2022/01/19 19:30 UTC NOAA

St. Peterburg, Russia (ULLI) 59-58N 030-18E 6M
Jan 19, 2022 - 02:30 PM EST / 2022.01.19 1930 UTC
Wind: from the SW (230 degrees) at 9 MPH (8 KT) gusting to 20 MPH (17 KT) (direction variable):0
Visibility: greater than 7 mile(s):0
Sky conditions: overcast
Temperature: 35 F (2 C)
Windchill: 28 F (-2 C):1
Dew Point: 32 F (0 C)
Relative Humidity: 86%
Pressure (altimeter): 29.35 in. Hg (0994 hPa)
ob: ULLI 191930Z 23004G09MPS 180V320 9999 OVC011 02/M00 Q0994 R28L/290050 NOSIG
cycle: 19

Station Type Date Time Source
ULLI TAF 2022/01/19 18:21 UTC NOAA

TAF TAF ULLI 191653Z 1918/2018 21006G11MPS 6000 BKN010
TEMPO 1918/2003 3000 -RASN BR BKN006 OVC016
TEMPO 2006/2018 1000 SHRASN BKN004 OVC016CB
BECMG 2007/2009 18005G10MPS

Example: see airport list